4I3

Knox County Airport

Mount Vernon, Ohio, USA
METAR K4I3 260557Z AUTO 04008KT 10SM CLR 06/05 A2993 RMK AO2
Observed Flight Rules
Apr-26 @ 05:57 UTC (5 minutes ago) Visual Flight Rules
Wind Visibility Clouds
40° at 8 knots 10 miles
  • Clear skies
Temperatures Readings
Current 6°C / 43°F
Dewpoint 5°C / 41°F
Humidity 93%
Altimeter 29.93" Hg
Pressure 1014 hPa
Elevation 363
METAR K4I3 260557Z AUTO 04008KT 10SM CLR 06/05 A2993 RMK AO2
Observed Flight Rules
Apr-26 @ 05:57 UTC
(5 minutes ago)
VFR
Wind Visibility
40° at 8 knots 10 miles
Clouds
  • Clear skies
Temperature Dewpoint
6°C / 43°F 5°C / 41°F
Humidity Altimeter Pressure
93% 29.93" Hg 1014 hPa